Time;durP1;ratioP1;P1;durP2;ratioP2;P2;SDS_P1;SDS_P2;PMS_P1;PMS_P2;Temp;Humidity;BMP_temperature;BMP_pressure;BME280_temperature;BME280_humidity;BME280_pressure;Samples;Min_cycle;Max_cycle;Signal;HPM_P1;HPM_P2
2021/08/07 00:00:59;;;;;;;11.45;2.90;;;;;;;17.13;70.67;100435.84;4975163;28;20108;-48
2021/08/07 00:03:24;;;;;;;11.13;2.83;;;;;;;17.06;72.07;100436.88;4969855;28;21082;-47
2021/08/07 00:05:50;;;;;;;10.68;2.90;;;;;;;16.99;71.49;100428.22;4972794;28;20054;-47
2021/08/07 00:08:15;;;;;;;10.63;3.10;;;;;;;16.99;70.88;100425.59;4966619;28;20117;-48
2021/08/07 00:10:40;;;;;;;12.60;2.97;;;;;;;16.96;71.56;100425.63;4973604;28;20113;-46
2021/08/07 00:13:06;;;;;;;8.77;2.70;;;;;;;16.94;71.11;100430.09;4971217;28;20121;-47
2021/08/07 00:15:32;;;;;;;9.95;2.72;;;;;;;16.91;71.30;100433.63;4974721;28;20058;-48
2021/08/07 00:17:57;;;;;;;9.95;2.78;;;;;;;16.87;71.87;100431.09;4974542;28;20069;-46
2021/08/07 00:20:23;;;;;;;12.80;2.75;;;;;;;16.80;71.85;100442.63;4967594;28;20074;-52
2021/08/07 00:22:48;;;;;;;12.63;2.85;;;;;;;16.69;72.18;100440.22;4974204;28;20049;-46
2021/08/07 00:25:13;;;;;;;11.10;3.20;;;;;;;16.63;72.36;100433.28;4973069;28;20125;-49
2021/08/07 00:27:39;;;;;;;12.57;3.30;;;;;;;16.61;72.24;100434.22;4974115;28;20121;-48
2021/08/07 00:30:05;;;;;;;11.35;3.15;;;;;;;16.46;73.51;100440.59;4973477;28;20753;-46
2021/08/07 00:32:31;;;;;;;9.15;3.10;;;;;;;16.52;72.62;100442.25;4973931;28;20619;-48
2021/08/07 00:34:56;;;;;;;11.60;3.10;;;;;;;16.45;73.06;100441.50;4968524;28;20031;-46
2021/08/07 00:37:23;;;;;;;14.15;3.15;;;;;;;16.47;72.95;100437.03;4971300;28;20056;-46
2021/08/07 00:39:48;;;;;;;12.52;3.08;;;;;;;16.42;73.49;100436.25;4977632;28;20053;-48
2021/08/07 00:42:13;;;;;;;8.73;2.88;;;;;;;16.41;72.85;100447.69;4974752;28;20144;-49
2021/08/07 00:44:39;;;;;;;12.43;2.75;;;;;;;16.41;72.68;100447.69;4976692;28;20507;-51
2021/08/07 00:47:04;;;;;;;10.55;3.00;;;;;;;16.37;73.15;100439.88;4971232;28;20061;-47
2021/08/07 00:49:30;;;;;;;12.95;3.55;;;;;;;16.31;73.44;100437.34;4974612;28;20106;-46
2021/08/07 00:51:55;;;;;;;9.80;2.83;;;;;;;16.26;72.91;100433.94;4973721;28;20498;-47
2021/08/07 00:54:20;;;;;;;13.27;3.25;;;;;;;16.21;73.03;100424.38;4969662;28;20137;-49
2021/08/07 00:56:46;;;;;;;10.73;3.50;;;;;;;16.24;73.39;100426.94;4975424;28;20648;-49
2021/08/07 00:59:11;;;;;;;16.33;3.78;;;;;;;16.21;72.70;100426.13;4966142;28;20026;-47
2021/08/07 01:01:42;;;;;;;12.00;3.20;;;;;;;16.21;72.88;100427.00;4976219;28;20112;-51
2021/08/07 01:04:09;;;;;;;11.77;2.85;;;;;;;16.24;72.50;100423.44;4969234;28;20030;-48
2021/08/07 01:06:48;;;;;;;10.52;3.00;;;;;;;16.23;72.07;100430.44;4975294;28;20042;-49
2021/08/07 01:09:45;;;;;;;12.45;3.25;;;;;;;16.20;72.53;100422.63;4972877;28;20034;-49
2021/08/07 01:12:27;;;;;;;14.63;3.00;;;;;;;16.13;72.43;100418.34;4972750;28;20081;-47
2021/08/07 01:14:54;;;;;;;13.30;3.33;;;;;;;16.14;72.28;100413.97;4971041;28;20026;-47
2021/08/07 01:17:24;;;;;;;12.88;3.30;;;;;;;16.15;72.35;100416.56;4973552;28;20557;-48
2021/08/07 01:20:27;;;;;;;14.27;3.38;;;;;;;16.13;72.75;100413.09;4971700;28;20031;-46
2021/08/07 01:22:56;;;;;;;17.63;3.60;;;;;;;16.07;73.21;100415.81;4968296;28;20505;-48
2021/08/07 01:25:22;;;;;;;14.30;3.03;;;;;;;16.06;73.03;100419.34;4978730;28;20126;-49
2021/08/07 01:27:48;;;;;;;14.43;3.20;;;;;;;16.05;72.73;100420.22;4967788;28;20061;-46
2021/08/07 01:30:17;;;;;;;12.57;3.15;;;;;;;15.91;73.83;100416.97;4972511;28;20598;-46
2021/08/07 01:32:43;;;;;;;14.98;3.05;;;;;;;15.82;73.90;100415.34;4972173;28;20066;-48
2021/08/07 01:35:08;;;;;;;14.13;3.63;;;;;;;15.85;73.27;100408.31;4974013;28;20038;-50
2021/08/07 01:37:34;;;;;;;16.27;3.25;;;;;;;15.87;73.28;100403.88;4966255;28;20370;-50
2021/08/07 01:40:00;;;;;;;15.07;3.30;;;;;;;15.85;73.75;100413.56;4974121;28;20070;-47
2021/08/07 01:42:26;;;;;;;17.30;3.33;;;;;;;15.85;73.91;100417.06;4975808;28;20034;-47
2021/08/07 01:44:52;;;;;;;18.35;3.22;;;;;;;15.86;73.58;100404.78;4973478;28;20034;-45
2021/08/07 01:47:43;;;;;;;11.63;2.83;;;;;;;15.82;74.15;100401.31;4973113;28;20031;-48
2021/08/07 01:50:27;;;;;;;17.20;2.85;;;;;;;15.83;74.08;100400.44;4972794;28;20133;-47
2021/08/07 01:52:57;;;;;;;15.57;2.85;;;;;;;15.82;74.09;100394.31;4969577;28;20046;-46
2021/08/07 01:55:31;;;;;;;13.30;3.20;;;;;;;15.81;75.01;100383.81;4970200;28;20023;-50
2021/08/07 01:58:09;;;;;;;15.60;3.40;;;;;;;15.80;74.15;100382.94;4991687;28;20037;-46
2021/08/07 02:00:37;;;;;;;15.65;2.67;;;;;;;15.79;74.86;100383.88;4980584;28;20117;-46
2021/08/07 02:03:02;;;;;;;16.25;3.10;;;;;;;15.80;74.81;100388.19;4970417;28;20053;-50
2021/08/07 02:05:27;;;;;;;15.68;2.90;;;;;;;15.80;74.85;100385.56;4973400;28;20034;-47
2021/08/07 02:07:53;;;;;;;15.63;3.00;;;;;;;15.76;75.14;100386.53;4973066;28;20034;-47
2021/08/07 02:10:19;;;;;;;12.57;3.20;;;;;;;15.74;75.47;100379.53;4969886;28;20060;-48
2021/08/07 02:12:45;;;;;;;10.27;2.92;;;;;;;15.73;75.13;100390.97;4970585;28;20096;-48
2021/08/07 02:15:15;;;;;;;12.35;2.90;;;;;;;15.69;75.16;100390.13;4968872;28;20719;-46
2021/08/07 02:17:43;;;;;;;11.75;2.92;;;;;;;15.70;74.88;100386.63;4962005;28;20089;-47
2021/08/07 02:20:14;;;;;;;13.13;3.00;;;;;;;15.71;74.98;100387.50;4972830;28;20382;-47
2021/08/07 02:22:42;;;;;;;13.60;3.38;;;;;;;15.66;75.50;100394.56;4970293;28;20187;-49
2021/08/07 02:25:07;;;;;;;9.63;2.90;;;;;;;15.66;75.06;100390.19;4971996;28;20845;-46
2021/08/07 02:27:33;;;;;;;10.10;3.17;;;;;;;15.65;75.31;100392.84;4974194;28;20061;-49
2021/08/07 02:29:59;;;;;;;11.60;3.17;;;;;;;15.61;75.24;100393.78;4971491;28;20061;-46
2021/08/07 02:32:25;;;;;;;9.45;2.80;;;;;;;15.58;75.11;100399.06;4975525;28;20438;-48
2021/08/07 02:34:50;;;;;;;8.93;2.65;;;;;;;15.53;75.53;100399.16;4984760;28;20056;-47
2021/08/07 02:37:15;;;;;;;11.93;3.00;;;;;;;15.48;76.04;100398.31;4971925;28;20152;-47
2021/08/07 02:39:41;;;;;;;9.20;3.15;;;;;;;15.46;75.89;100400.09;4969238;28;20082;-48
2021/08/07 02:42:07;;;;;;;9.98;2.78;;;;;;;15.42;76.24;100396.66;4973534;28;20041;-50
2021/08/07 02:44:33;;;;;;;15.25;3.53;;;;;;;15.39;76.88;100404.56;4976963;28;20076;-50
2021/08/07 02:46:58;;;;;;;11.98;3.55;;;;;;;15.40;76.87;100398.41;4971649;28;20072;-49
2021/08/07 02:49:23;;;;;;;13.50;4.05;;;;;;;15.39;77.23;100403.69;4967594;28;20031;-47
2021/08/07 02:51:50;;;;;;;13.70;3.80;;;;;;;15.43;77.23;100398.34;4965052;28;20428;-48
2021/08/07 02:54:17;;;;;;;9.45;3.58;;;;;;;15.53;77.20;100383.38;4970699;28;20034;-49
2021/08/07 02:56:42;;;;;;;11.48;3.58;;;;;;;15.55;77.41;100388.63;4972457;28;20027;-47
2021/08/07 02:59:08;;;;;;;12.65;3.90;;;;;;;15.56;77.36;100371.94;4970829;28;20038;-47
2021/08/07 03:01:33;;;;;;;10.98;3.70;;;;;;;15.56;77.46;100372.81;4985827;28;20089;-49
2021/08/07 03:03:58;;;;;;;13.55;4.03;;;;;;;15.55;77.46;100376.34;4972624;28;20560;-46
2021/08/07 03:06:24;;;;;;;14.75;4.00;;;;;;;15.58;77.59;100380.69;4970388;28;20165;-48
2021/08/07 03:08:50;;;;;;;16.52;4.22;;;;;;;15.55;78.35;100383.38;4969908;28;20026;-50
2021/08/07 03:11:15;;;;;;;10.18;3.70;;;;;;;15.56;77.86;100385.94;4973406;28;20050;-47
2021/08/07 03:13:40;;;;;;;10.90;4.03;;;;;;;15.55;77.93;100388.63;4968932;28;20163;-46
2021/08/07 03:16:07;;;;;;;12.10;4.03;;;;;;;15.59;77.86;100385.91;4974237;28;20352;-48
2021/08/07 03:18:32;;;;;;;16.50;4.20;;;;;;;15.60;78.05;100385.03;4973939;28;20026;-46
2021/08/07 03:20:58;;;;;;;15.05;4.25;;;;;;;15.62;77.85;100388.47;4967542;28;20037;-47
2021/08/07 03:23:23;;;;;;;11.00;3.95;;;;;;;15.58;77.69;100386.81;4970919;28;20034;-47
2021/08/07 03:25:49;;;;;;;12.27;3.70;;;;;;;15.60;77.62;100384.16;4966565;28;20031;-50
2021/08/07 03:28:14;;;;;;;10.98;4.15;;;;;;;15.61;77.54;100383.28;4973380;28;20153;-47
2021/08/07 03:30:39;;;;;;;11.18;3.63;;;;;;;15.60;77.58;100381.53;4964995;28;20583;-47
2021/08/07 03:33:05;;;;;;;12.73;4.22;;;;;;;15.55;77.64;100378.97;4975025;28;20536;-47
2021/08/07 03:35:30;;;;;;;14.68;4.22;;;;;;;15.54;77.98;100382.50;4973927;28;20461;-46
2021/08/07 03:37:55;;;;;;;12.55;3.67;;;;;;;15.50;77.89;100379.88;4966149;28;20070;-48
2021/08/07 03:40:21;;;;;;;16.25;4.30;;;;;;;15.47;78.24;100383.44;4970531;28;20109;-48
2021/08/07 03:42:46;;;;;;;12.73;3.72;;;;;;;15.52;78.61;100384.25;4967173;28;20031;-48
2021/08/07 03:45:12;;;;;;;14.00;3.92;;;;;;;15.57;78.48;100379.81;4977171;28;20046;-51
2021/08/07 03:47:49;;;;;;;11.57;3.63;;;;;;;15.62;78.08;100380.59;4970296;28;20057;-50
2021/08/07 03:50:15;;;;;;;9.48;3.40;;;;;;;15.59;77.71;100372.78;4989042;28;20113;-51
2021/08/07 03:52:40;;;;;;;13.10;3.60;;;;;;;15.52;78.02;100371.13;4973056;28;20030;-49
2021/08/07 03:55:07;;;;;;;14.40;3.75;;;;;;;15.49;77.86;100367.66;4979112;28;20060;-47
2021/08/07 03:57:33;;;;;;;13.88;3.55;;;;;;;15.48;77.71;100363.28;4977874;28;20475;-47
2021/08/07 03:59:58;;;;;;;10.68;3.10;;;;;;;15.51;77.39;100371.09;4974248;28;20038;-49
2021/08/07 04:02:23;;;;;;;10.80;3.40;;;;;;;15.48;77.52;100364.16;4980498;28;20398;-47
2021/08/07 04:04:49;;;;;;;10.93;3.45;;;;;;;15.46;77.31;100371.19;4976999;28;20046;-50
2021/08/07 04:07:14;;;;;;;11.73;3.10;;;;;;;15.43;76.96;100365.97;4978698;28;20057;-48
2021/08/07 04:09:40;;;;;;;9.50;2.97;;;;;;;15.40;77.07;100359.00;4968553;28;20147;-48
2021/08/07 04:12:05;;;;;;;9.02;2.45;;;;;;;15.38;76.82;100363.41;4977075;28;20233;-48
2021/08/07 04:14:31;;;;;;;11.07;3.20;;;;;;;15.35;77.26;100355.59;4973276;28;20109;-48
2021/08/07 04:16:56;;;;;;;9.82;3.13;;;;;;;15.30;77.35;100357.41;4974734;28;20089;-46
2021/08/07 04:19:21;;;;;;;13.75;3.20;;;;;;;15.33;77.35;100353.84;4976124;28;20458;-46
2021/08/07 04:21:47;;;;;;;9.93;2.92;;;;;;;15.39;76.89;100351.16;4972005;28;20518;-46
2021/08/07 04:24:12;;;;;;;12.40;3.40;;;;;;;15.40;77.03;100350.25;4977716;28;20386;-46
2021/08/07 04:26:38;;;;;;;12.35;3.08;;;;;;;15.39;76.92;100351.16;4966613;28;20043;-48
2021/08/07 04:29:03;;;;;;;10.30;2.75;;;;;;;15.25;77.28;100353.97;4972985;28;20100;-47
2021/08/07 04:31:28;;;;;;;7.93;2.65;;;;;;;15.20;77.46;100353.16;4980445;28;20041;-49
2021/08/07 04:33:54;;;;;;;9.27;2.85;;;;;;;15.29;77.32;100346.94;4972471;28;20034;-51
2021/08/07 04:36:19;;;;;;;11.63;2.90;;;;;;;15.35;76.64;100352.97;4975894;28;20731;-50
2021/08/07 04:38:44;;;;;;;8.82;2.60;;;;;;;15.36;76.53;100354.69;4974904;28;20039;-47
2021/08/07 04:41:10;;;;;;;9.32;3.00;;;;;;;15.39;76.47;100361.66;4974062;28;20038;-47
2021/08/07 04:43:35;;;;;;;11.00;2.63;;;;;;;15.43;76.08;100361.56;4969008;28;20598;-47
2021/08/07 04:46:00;;;;;;;8.18;2.67;;;;;;;15.49;76.20;100365.03;4978158;28;21821;-49
2021/08/07 04:48:26;;;;;;;10.82;2.92;;;;;;;15.53;76.25;100358.88;4970662;28;20077;-51
2021/08/07 04:50:51;;;;;;;9.27;3.30;;;;;;;15.50;76.91;100359.72;4973742;28;20034;-50
2021/08/07 04:53:17;;;;;;;10.68;3.20;;;;;;;15.57;76.95;100361.41;4972337;28;20521;-49
2021/08/07 04:55:42;;;;;;;14.63;3.58;;;;;;;15.74;76.82;100348.88;4969712;28;20046;-47
2021/08/07 04:58:07;;;;;;;10.65;3.75;;;;;;;16.00;76.33;100344.94;4976662;28;20026;-48
2021/08/07 05:00:33;;;;;;;10.50;3.40;;;;;;;16.33;75.83;100346.13;4970368;28;20030;-46
2021/08/07 05:02:58;;;;;;;11.73;3.25;;;;;;;16.70;74.97;100347.19;4975691;28;20478;-47
2021/08/07 05:05:24;;;;;;;14.48;3.35;;;;;;;16.88;73.34;100341.56;4976685;28;20054;-48
2021/08/07 05:07:49;;;;;;;11.60;3.42;;;;;;;16.84;73.70;100339.88;4972755;28;20029;-49
2021/08/07 05:10:15;;;;;;;8.88;3.33;;;;;;;17.01;73.25;100340.41;4976218;28;20292;-49
2021/08/07 05:12:40;;;;;;;13.63;3.45;;;;;;;17.17;72.63;100342.69;4968717;28;20061;-47
2021/08/07 05:15:07;;;;;;;14.80;3.53;;;;;;;17.28;72.41;100346.81;4977511;28;20038;-47
2021/08/07 05:17:32;;;;;;;12.02;3.38;;;;;;;17.34;72.29;100338.78;4975524;28;20026;-49
2021/08/07 05:19:58;;;;;;;10.27;3.40;;;;;;;17.35;72.12;100343.16;4975153;28;20502;-47
2021/08/07 05:22:23;;;;;;;14.88;3.70;;;;;;;17.24;72.97;100339.03;4975713;28;20682;-48
2021/08/07 05:24:49;;;;;;;7.60;3.10;;;;;;;17.16;73.46;100330.41;4973248;28;20070;-50
2021/08/07 05:27:15;;;;;;;12.02;3.53;;;;;;;17.22;72.95;100330.28;4976042;28;20046;-49
2021/08/07 05:29:41;;;;;;;9.63;3.58;;;;;;;17.20;73.39;100329.47;4966785;28;20076;-49
2021/08/07 05:32:06;;;;;;;10.75;3.78;;;;;;;17.28;73.23;100330.13;4990449;28;20023;-47
2021/08/07 05:34:31;;;;;;;10.32;3.40;;;;;;;17.42;72.97;100330.69;4971650;28;20037;-48
2021/08/07 05:36:57;;;;;;;11.07;3.28;;;;;;;17.53;72.28;100330.44;4973683;28;20113;-49
2021/08/07 05:39:22;;;;;;;8.35;3.00;;;;;;;17.68;72.26;100323.09;4970565;28;20037;-50
2021/08/07 05:41:48;;;;;;;9.48;3.33;;;;;;;17.75;71.84;100323.78;4972875;28;20149;-47
2021/08/07 05:44:13;;;;;;;14.48;3.75;;;;;;;18.02;70.75;100328.38;4972652;28;20056;-48
2021/08/07 05:46:38;;;;;;;11.35;3.05;;;;;;;18.26;70.43;100340.03;4974258;28;20030;-46
2021/08/07 05:49:04;;;;;;;10.93;3.17;;;;;;;18.41;69.35;100329.09;4971983;28;20033;-50
2021/08/07 05:51:32;;;;;;;11.82;3.13;;;;;;;18.44;68.32;100326.34;4972181;28;20077;-51
2021/08/07 05:53:58;;;;;;;17.35;3.30;;;;;;;18.40;69.34;100337.06;4969475;28;20569;-48
2021/08/07 05:56:23;;;;;;;13.75;3.25;;;;;;;18.46;69.71;100327.19;4974950;28;20092;-51
2021/08/07 05:58:49;;;;;;;11.40;2.90;;;;;;;18.56;69.37;100336.59;4968402;28;20038;-48
2021/08/07 06:01:14;;;;;;;8.98;2.72;;;;;;;18.88;67.26;100327.78;4973065;28;20042;-47
2021/08/07 06:03:39;;;;;;;8.18;2.63;;;;;;;19.18;67.00;100333.06;4970615;28;20521;-47
2021/08/07 06:06:05;;;;;;;10.30;2.83;;;;;;;19.41;65.83;100331.44;4970065;28;20124;-46
2021/08/07 06:08:30;;;;;;;7.80;2.40;;;;;;;19.53;65.21;100329.34;4967029;28;20022;-47
2021/08/07 06:10:59;;;;;;;7.05;2.63;;;;;;;19.74;64.41;100326.00;4975657;28;20117;-49
2021/08/07 06:13:25;;;;;;;10.25;2.58;;;;;;;19.77;64.21;100312.69;4976217;28;20034;-48
2021/08/07 06:15:51;;;;;;;7.85;2.50;;;;;;;19.42;65.81;100324.38;4971053;28;20105;-47
2021/08/07 06:18:16;;;;;;;11.75;2.88;;;;;;;19.37;66.51;100328.94;4969413;28;20445;-47
2021/08/07 06:20:43;;;;;;;12.18;2.92;;;;;;;19.21;67.21;100315.31;4970515;28;20391;-50
2021/08/07 06:23:08;;;;;;;9.73;2.80;;;;;;;19.15;64.87;100323.44;4972575;28;20045;-48
2021/08/07 06:25:34;;;;;;;8.75;2.70;;;;;;;19.00;66.01;100310.69;4974009;28;21146;-47
2021/08/07 06:27:59;;;;;;;11.20;2.67;;;;;;;18.93;66.05;100312.66;4972843;28;20116;-51
2021/08/07 06:30:26;;;;;;;9.63;2.70;;;;;;;18.80;67.08;100310.41;4979671;28;20034;-49
2021/08/07 06:32:51;;;;;;;9.55;2.90;;;;;;;18.74;66.90;100305.31;4973549;28;20362;-48
2021/08/07 06:35:17;;;;;;;8.10;2.72;;;;;;;18.70;66.74;100312.47;4975744;28;20039;-51
2021/08/07 06:37:42;;;;;;;9.93;2.80;;;;;;;18.74;66.86;100307.94;4967455;28;20745;-47
2021/08/07 06:40:09;;;;;;;12.45;2.95;;;;;;;18.79;66.83;100312.19;4973718;28;20026;-47
2021/08/07 06:42:34;;;;;;;13.50;2.92;;;;;;;18.86;67.35;100315.50;4968465;28;20184;-48
2021/08/07 06:44:59;;;;;;;13.20;2.70;;;;;;;19.02;66.67;100308.88;4972233;28;20666;-47
2021/08/07 06:47:25;;;;;;;11.20;2.60;;;;;;;19.24;66.11;100306.44;4967849;28;20615;-51
2021/08/07 06:49:50;;;;;;;7.82;2.50;;;;;;;19.62;65.74;100302.63;4973048;28;20030;-46
2021/08/07 06:52:16;;;;;;;11.27;2.83;;;;;;;20.64;64.07;100302.59;4973794;28;20128;-47
2021/08/07 06:54:41;;;;;;;11.05;2.25;;;;;;;21.32;60.39;100304.41;4967807;28;20038;-47
2021/08/07 06:57:06;;;;;;;8.23;2.30;;;;;;;21.53;59.14;100298.22;4973967;28;20034;-47
2021/08/07 06:59:32;;;;;;;9.20;2.42;;;;;;;21.65;59.65;100294.25;4970856;28;20300;-46
2021/08/07 07:01:57;;;;;;;7.07;2.40;;;;;;;22.30;57.01;100293.25;4975212;28;20447;-47
2021/08/07 07:04:23;;;;;;;8.23;2.47;;;;;;;23.35;54.41;100303.44;4972169;28;20516;-48
2021/08/07 07:06:48;;;;;;;7.63;2.35;;;;;;;24.07;52.13;100303.41;4967311;28;20612;-46
2021/08/07 07:09:13;;;;;;;6.55;2.25;;;;;;;25.31;47.82;100300.31;4975506;28;20041;-46
2021/08/07 07:11:39;;;;;;;5.85;2.05;;;;;;;25.93;48.34;100294.03;4968947;28;20544;-46
2021/08/07 07:14:05;;;;;;;5.50;2.00;;;;;;;26.72;44.73;100299.91;4967864;28;20049;-46
2021/08/07 07:16:30;;;;;;;5.72;1.85;;;;;;;26.46;43.87;100293.53;4977235;28;20045;-46
2021/08/07 07:18:57;;;;;;;6.30;1.80;;;;;;;26.46;43.96;100298.88;4973827;28;20070;-48
2021/08/07 07:21:23;;;;;;;6.75;1.80;;;;;;;26.21;44.19;100298.59;4972030;28;20113;-50
2021/08/07 07:23:48;;;;;;;7.28;2.00;;;;;;;25.41;46.85;100299.72;4970948;28;20572;-51
2021/08/07 07:26:30;;;;;;;7.97;2.00;;;;;;;24.57;49.47;100316.78;4970534;28;20113;-52
2021/08/07 07:28:56;;;;;;;7.13;2.00;;;;;;;23.59;50.01;100304.06;4968073;28;20056;-50
2021/08/07 07:31:22;;;;;;;5.55;1.73;;;;;;;22.72;52.41;100301.09;4967587;28;20034;-46
2021/08/07 07:33:47;;;;;;;7.15;1.98;;;;;;;22.15;55.72;100319.53;4969194;28;20122;-47
2021/08/07 07:36:13;;;;;;;7.10;2.00;;;;;;;21.82;55.91;100311.19;4975334;28;20556;-47
2021/08/07 07:38:38;;;;;;;8.60;2.20;;;;;;;21.17;58.05;100313.81;4971803;28;20557;-49
2021/08/07 07:41:04;;;;;;;6.88;2.20;;;;;;;21.16;58.65;100312.13;4975733;28;20078;-47
2021/08/07 07:43:30;;;;;;;7.88;2.33;;;;;;;21.03;61.01;100318.78;4969927;28;20066;-47
2021/08/07 07:45:56;;;;;;;6.97;2.22;;;;;;;20.95;59.65;100318.19;4971961;28;20666;-47
2021/08/07 07:48:21;;;;;;;7.57;2.20;;;;;;;20.63;63.25;100317.59;4969721;28;20035;-48
2021/08/07 07:50:48;;;;;;;8.75;2.35;;;;;;;20.70;62.87;100320.03;4970921;28;20038;-48
2021/08/07 07:53:13;;;;;;;10.18;2.30;;;;;;;20.66;63.52;100319.28;4970776;28;20233;-49
2021/08/07 07:55:39;;;;;;;7.80;2.40;;;;;;;20.64;65.25;100319.34;4966503;28;20121;-49
2021/08/07 07:58:04;;;;;;;6.88;2.38;;;;;;;20.58;64.36;100310.75;4970120;28;20053;-48
2021/08/07 08:00:29;;;;;;;5.68;2.25;;;;;;;20.60;64.31;100308.91;4971126;28;20034;-48
2021/08/07 08:02:55;;;;;;;6.80;2.20;;;;;;;20.70;62.81;100310.31;4967549;28;20353;-47
2021/08/07 08:05:20;;;;;;;7.07;2.05;;;;;;;20.71;64.11;100316.47;4973444;28;20030;-46
2021/08/07 08:07:45;;;;;;;6.50;2.67;;;;;;;20.56;65.50;100309.94;4967555;28;20470;-46
2021/08/07 08:10:12;;;;;;;7.13;2.40;;;;;;;20.60;61.87;100303.63;4963799;28;20053;-47
2021/08/07 08:12:38;;;;;;;6.78;2.40;;;;;;;20.75;63.79;100302.19;4964239;28;20030;-49
2021/08/07 08:15:04;;;;;;;4.65;2.35;;;;;;;21.00;62.53;100297.69;4966858;28;20065;-48
2021/08/07 08:17:30;;;;;;;5.90;2.30;;;;;;;21.47;61.46;100309.09;4965910;28;20042;-49
2021/08/07 08:19:55;;;;;;;3.83;2.00;;;;;;;21.79;60.24;100300.69;4973544;28;20438;-46
2021/08/07 08:22:20;;;;;;;4.95;2.00;;;;;;;21.97;59.76;100307.03;4969457;28;20053;-48
2021/08/07 08:24:46;;;;;;;7.07;2.42;;;;;;;21.86;57.65;100307.47;4965389;28;20117;-49
2021/08/07 08:27:13;;;;;;;7.50;2.50;;;;;;;21.68;59.08;100300.28;4971089;28;20053;-48
2021/08/07 08:29:38;;;;;;;7.05;2.88;;;;;;;21.57;59.50;100309.59;4973312;28;20426;-46
2021/08/07 08:32:04;;;;;;;6.45;2.50;;;;;;;21.49;58.48;100301.94;4977799;28;20048;-51
2021/08/07 08:34:29;;;;;;;5.15;2.30;;;;;;;21.52;58.32;100301.84;4972230;28;20144;-46
2021/08/07 08:36:55;;;;;;;6.38;2.60;;;;;;;21.55;57.63;100300.81;4973319;28;20357;-47
2021/08/07 08:39:20;;;;;;;7.30;2.50;;;;;;;21.64;60.32;100292.50;4971025;28;20089;-49
2021/08/07 08:41:46;;;;;;;6.57;2.78;;;;;;;21.69;57.63;100294.03;4972758;28;20454;-50
2021/08/07 08:44:11;;;;;;;6.30;2.10;;;;;;;22.00;58.57;100295.44;4976602;28;20607;-50
2021/08/07 08:46:37;;;;;;;4.57;1.98;;;;;;;22.22;58.11;100285.59;4970164;28;20574;-52
2021/08/07 08:49:03;;;;;;;5.93;2.25;;;;;;;22.29;56.80;100286.22;4974926;28;20454;-51
2021/08/07 08:51:29;;;;;;;5.05;2.20;;;;;;;22.47;57.21;100285.38;4974801;28;20482;-49
2021/08/07 08:53:55;;;;;;;6.85;2.20;;;;;;;22.66;55.92;100280.97;4974353;28;20117;-47
2021/08/07 08:56:20;;;;;;;4.93;2.00;;;;;;;22.65;56.09;100274.78;4989030;28;20324;-48
2021/08/07 08:58:46;;;;;;;6.38;2.10;;;;;;;22.35;55.77;100275.31;4969915;28;20041;-47
2021/08/07 09:01:12;;;;;;;5.13;1.80;;;;;;;21.98;58.10;100270.75;4975913;28;20053;-48
2021/08/07 09:03:37;;;;;;;5.75;2.03;;;;;;;22.05;56.24;100264.25;4970838;28;20031;-51
2021/08/07 09:06:03;;;;;;;5.88;2.00;;;;;;;22.30;56.42;100264.03;4977910;28;20059;-47
2021/08/07 09:08:28;;;;;;;8.57;2.20;;;;;;;22.63;57.64;100257.19;4967858;28;20056;-47
2021/08/07 09:11:19;;;;;;;5.50;2.10;;;;;;;23.04;54.09;100253.50;4985809;28;20089;-46
2021/08/07 09:13:45;;;;;;;5.07;1.90;;;;;;;23.23;52.46;100248.19;4973767;28;20032;-47
2021/08/07 09:16:11;;;;;;;7.13;2.10;;;;;;;23.45;51.81;100242.66;4970643;28;20165;-48
2021/08/07 09:18:37;;;;;;;5.47;2.20;;;;;;;23.38;53.30;100238.56;4974068;28;20073;-48
2021/08/07 09:21:14;;;;;;;6.03;2.20;;;;;;;23.61;51.49;100234.78;4972695;28;20030;-46
2021/08/07 09:23:41;;;;;;;5.63;2.20;;;;;;;23.55;51.46;100237.75;4971457;28;20482;-47
2021/08/07 09:26:19;;;;;;;6.25;2.17;;;;;;;23.01;56.79;100240.34;4971299;28;20454;-47
2021/08/07 09:28:49;;;;;;;5.55;2.10;;;;;;;22.88;54.94;100239.19;4973904;28;20467;-48
2021/08/07 09:31:15;;;;;;;3.75;2.17;;;;;;;22.99;54.98;100234.22;4972894;28;20034;-47
2021/08/07 09:33:40;;;;;;;5.25;2.05;;;;;;;23.22;53.01;100225.16;4972209;28;20089;-46
2021/08/07 09:36:06;;;;;;;7.45;2.17;;;;;;;23.58;52.12;100222.50;4978850;28;20105;-49
2021/08/07 09:38:31;;;;;;;4.68;2.00;;;;;;;23.92;52.10;100215.44;4967841;28;20230;-49
2021/08/07 09:41:05;;;;;;;5.90;1.80;;;;;;;23.94;50.81;100213.56;4982631;28;20031;-48
2021/08/07 09:43:47;;;;;;;;;;;;;;;23.78;50.93;100214.38;4973735;28;20023;-48
2021/08/07 09:46:30;;;;;;;4.78;2.00;;;;;;;24.05;51.16;100219.19;4991115;28;19928;-49
2021/08/07 09:48:56;;;;;;;6.18;2.25;;;;;;;23.85;50.36;100214.91;4973553;28;20030;-47
2021/08/07 09:51:26;;;;;;;6.13;2.30;;;;;;;23.60;50.63;100210.00;4975832;28;20564;-48
2021/08/07 09:54:09;;;;;;;5.10;2.33;;;;;;;23.40;50.57;100202.97;4985054;28;20042;-47
2021/08/07 09:56:55;;;;;;;6.95;2.30;;;;;;;23.12;51.61;100207.06;4968755;28;20078;-46
2021/08/07 09:59:22;;;;;;;5.32;2.30;;;;;;;22.97;51.78;100196.25;4978255;28;20456;-49
2021/08/07 10:01:50;;;;;;;4.82;2.30;;;;;;;23.02;52.84;100196.88;4970809;28;20122;-46
2021/08/07 10:04:16;;;;;;;7.18;2.50;;;;;;;23.34;53.79;100197.97;4990696;28;20073;-47
2021/08/07 10:06:44;;;;;;;5.82;2.60;;;;;;;23.49;50.75;100190.16;4964390;28;20572;-46
2021/08/07 10:09:10;;;;;;;6.35;2.80;;;;;;;23.56;52.85;100200.44;4973342;28;20033;-46
2021/08/07 10:11:36;;;;;;;7.10;2.90;;;;;;;23.62;53.89;100193.94;4977805;28;20053;-47
2021/08/07 10:14:03;;;;;;;5.72;2.60;;;;;;;23.66;52.37;100206.16;4974855;28;20034;-47
2021/08/07 10:16:29;;;;;;;4.00;2.10;;;;;;;24.05;50.73;100201.41;4966104;28;20026;-47
2021/08/07 10:18:55;;;;;;;4.43;1.90;;;;;;;24.35;47.69;100182.09;4976979;28;20062;-46
2021/08/07 10:21:21;;;;;;;6.65;2.30;;;;;;;24.08;50.16;100184.44;4971243;28;20033;-50
2021/08/07 10:23:48;;;;;;;4.63;2.38;;;;;;;24.12;51.04;100183.31;4972806;28;20023;-47
2021/08/07 10:26:19;;;;;;;3.70;2.40;;;;;;;23.74;49.58;100188.84;4971997;28;20070;-47
2021/08/07 10:28:49;;;;;;;7.10;2.50;;;;;;;23.66;50.06;100179.56;4969404;28;20034;-46
2021/08/07 10:31:21;;;;;;;6.03;2.70;;;;;;;23.91;52.62;100179.16;4976910;28;20041;-48
2021/08/07 10:33:47;;;;;;;6.03;2.63;;;;;;;23.86;49.20;100174.03;4968189;28;20026;-50
2021/08/07 10:36:14;;;;;;;4.72;2.60;;;;;;;23.48;49.95;100169.84;4969932;28;20282;-47
2021/08/07 10:38:40;;;;;;;6.57;3.22;;;;;;;23.42;50.84;100163.00;4967688;28;20030;-47
2021/08/07 10:41:07;;;;;;;7.00;3.85;;;;;;;23.34;50.22;100175.81;4969143;28;20367;-47
2021/08/07 10:43:35;;;;;;;9.38;3.88;;;;;;;23.35;52.29;100175.75;4973325;28;20456;-48
2021/08/07 10:46:05;;;;;;;6.43;2.80;;;;;;;23.27;50.75;100172.59;4971416;28;20030;-49
2021/08/07 10:48:40;;;;;;;7.85;3.45;;;;;;;23.28;49.16;100165.50;4974248;28;20038;-47
2021/08/07 10:51:24;;;;;;;7.50;2.88;;;;;;;23.56;51.19;100165.84;4970032;28;20023;-49
2021/08/07 10:53:53;;;;;;;5.43;2.38;;;;;;;23.77;47.78;100158.56;4970796;28;20038;-47
2021/08/07 10:56:42;;;;;;;4.55;1.98;;;;;;;24.08;48.64;100153.34;4972119;28;20034;-46
2021/08/07 10:59:10;;;;;;;5.80;2.33;;;;;;;24.04;48.22;100146.44;4971444;28;20034;-47
2021/08/07 11:01:37;;;;;;;4.78;2.10;;;;;;;24.05;48.43;100150.81;4973484;28;20050;-46
2021/08/07 11:04:02;;;;;;;7.28;2.25;;;;;;;23.67;53.95;100152.84;4973106;28;20057;-45
2021/08/07 11:06:49;;;;;;;5.63;1.70;;;;;;;24.10;47.78;100153.22;4972996;28;20031;-49
2021/08/07 11:09:29;;;;;;;8.55;5.00;;;;;;;24.52;45.09;100158.06;4975352;28;20435;-46
2021/08/07 11:12:06;;;;;;;15.73;9.65;;;;;;;24.56;43.91;100159.63;4972705;28;20030;-48
2021/08/07 11:14:35;;;;;;;8.43;3.95;;;;;;;24.55;47.55;100163.22;4983289;28;21005;-47
2021/08/07 11:17:03;;;;;;;8.27;4.70;;;;;;;24.85;45.27;100144.66;4980189;28;20034;-49
2021/08/07 11:20:04;;;;;;;6.25;2.60;;;;;;;25.04;44.48;100145.34;4974103;28;20095;-45
2021/08/07 11:22:32;;;;;;;19.00;12.05;;;;;;;25.27;42.89;100142.19;4968001;28;20039;-49